Time;durP1;ratioP1;P1;durP2;ratioP2;P2;SDS_P1;SDS_P2;PMS_P1;PMS_P2;Temp;Humidity;BMP_temperature;BMP_pressure;BME280_temperature;BME280_humidity;BME280_pressure;Samples;Min_cycle;Max_cycle;Signal;HPM_P1;HPM_P2
2023/03/30 00:00:44;;;;;;;10.27;9.73;;;;;;;;;;5107850;28;20016;-59
2023/03/30 00:03:09;;;;;;;10.27;9.68;;;;;;;;;;5105138;28;20039;-60
2023/03/30 00:05:35;;;;;;;9.88;9.38;;;;;;;;;;5115047;28;20446;-60
2023/03/30 00:08:01;;;;;;;9.73;9.25;;;;;;;;;;5114180;28;20501;-60
2023/03/30 00:10:28;;;;;;;10.52;9.93;;;;;;;;;;5114479;28;20031;-61
2023/03/30 00:12:53;;;;;;;10.35;9.77;;;;;;;;;;5113734;28;20016;-60
2023/03/30 00:15:20;;;;;;;11.32;10.63;;;;;;;;;;5116684;27;20045;-60
2023/03/30 00:17:46;;;;;;;9.55;9.05;;;;;;;;;;5103176;28;20024;-60
2023/03/30 00:20:12;;;;;;;9.73;9.23;;;;;;;;;;5114496;28;20391;-61
2023/03/30 00:22:38;;;;;;;9.70;9.20;;;;;;;;;;5112742;28;20011;-61
2023/03/30 00:25:05;;;;;;;9.88;9.38;;;;;;;;;;5114408;28;20051;-59
2023/03/30 00:27:30;;;;;;;10.55;9.95;;;;;;;;;;5113578;28;20023;-61
2023/03/30 00:29:55;;;;;;;9.70;9.20;;;;;;;;;;5113839;28;20028;-61
2023/03/30 00:32:20;;;;;;;9.73;9.23;;;;;;;;;;5114076;28;20043;-61
2023/03/30 00:34:46;;;;;;;9.80;9.30;;;;;;;;;;5112221;27;20026;-61
2023/03/30 00:37:11;;;;;;;10.02;9.52;;;;;;;;;;5114033;28;20027;-61
2023/03/30 00:39:37;;;;;;;10.32;9.73;;;;;;;;;;5113939;28;20020;-60
2023/03/30 00:42:02;;;;;;;9.20;8.80;;;;;;;;;;5114096;28;20019;-60
2023/03/30 00:44:46;;;;;;;10.95;10.30;;;;;;;;;;5112862;28;20027;-60
2023/03/30 00:47:11;;;;;;;10.23;9.65;;;;;;;;;;5113241;28;20031;-60
2023/03/30 00:49:38;;;;;;;10.20;9.60;;;;;;;;;;5105368;28;20016;-60
2023/03/30 00:52:03;;;;;;;9.90;9.40;;;;;;;;;;5113585;28;20054;-60
2023/03/30 00:54:29;;;;;;;9.90;9.40;;;;;;;;;;5113394;28;20055;-60
2023/03/30 00:56:54;;;;;;;9.98;9.48;;;;;;;;;;5113525;28;20043;-61
2023/03/30 00:59:19;;;;;;;9.82;9.32;;;;;;;;;;5113445;28;20046;-60
2023/03/30 01:01:48;;;;;;;11.00;10.32;;;;;;;;;;5113477;28;20023;-60
2023/03/30 01:04:15;;;;;;;9.85;9.35;;;;;;;;;;5102362;28;20027;-59
2023/03/30 01:06:42;;;;;;;10.20;9.60;;;;;;;;;;5110628;28;20478;-61
2023/03/30 01:09:08;;;;;;;9.43;8.93;;;;;;;;;;5113664;28;20019;-59
2023/03/30 01:11:33;;;;;;;9.90;9.38;;;;;;;;;;5115067;27;20018;-60
2023/03/30 01:14:01;;;;;;;9.85;9.35;;;;;;;;;;5123913;27;20027;-60
2023/03/30 01:16:47;;;;;;;10.77;10.18;;;;;;;;;;5112252;28;20091;-59
2023/03/30 01:19:31;;;;;;;9.90;9.40;;;;;;;;;;5111792;28;20031;-60
2023/03/30 01:22:15;;;;;;;10.30;9.70;;;;;;;;;;5111216;28;20024;-60
2023/03/30 01:25:01;;;;;;;10.13;9.57;;;;;;;;;;5110753;28;20020;-60
2023/03/30 01:27:45;;;;;;;11.23;10.52;;;;;;;;;;5105320;28;20032;-61
2023/03/30 01:30:11;;;;;;;10.05;9.55;;;;;;;;;;5112909;28;20091;-60
2023/03/30 01:32:40;;;;;;;9.82;9.32;;;;;;;;;;5112832;28;20114;-60
2023/03/30 01:35:16;;;;;;;9.63;9.13;;;;;;;;;;5111795;28;20107;-60
2023/03/30 01:38:00;;;;;;;9.68;9.18;;;;;;;;;;5112570;28;20082;-60
2023/03/30 01:40:32;;;;;;;10.27;9.68;;;;;;;;;;5112705;28;20041;-59
2023/03/30 01:43:02;;;;;;;9.32;8.93;;;;;;;;;;5099901;28;20059;-60
2023/03/30 01:45:36;;;;;;;9.98;9.48;;;;;;;;;;5112838;28;20509;-61
2023/03/30 01:48:17;;;;;;;9.60;9.10;;;;;;;;;;5112196;28;20024;-61
2023/03/30 01:50:47;;;;;;;10.07;9.57;;;;;;;;;;5105384;28;20020;-61
2023/03/30 01:53:15;;;;;;;9.98;9.48;;;;;;;;;;5112801;28;20479;-60
2023/03/30 01:56:02;;;;;;;10.27;9.75;;;;;;;;;;5111933;28;20028;-59
2023/03/30 01:58:32;;;;;;;10.00;9.50;;;;;;;;;;5112415;28;20032;-59
2023/03/30 02:00:59;;;;;;;10.25;9.70;;;;;;;;;;5112682;28;20057;-59
2023/03/30 02:03:29;;;;;;;9.98;9.48;;;;;;;;;;5112890;28;20437;-59
2023/03/30 02:05:56;;;;;;;10.27;9.70;;;;;;;;;;5111120;28;20019;-59
2023/03/30 02:08:24;;;;;;;9.80;9.30;;;;;;;;;;5110820;28;20103;-60
2023/03/30 02:10:51;;;;;;;9.88;9.38;;;;;;;;;;5112537;28;20023;-60
2023/03/30 02:13:18;;;;;;;10.88;10.27;;;;;;;;;;5111597;28;20100;-60
2023/03/30 02:15:45;;;;;;;10.55;9.95;;;;;;;;;;5112310;28;20027;-60
2023/03/30 02:18:10;;;;;;;9.73;9.23;;;;;;;;;;5112865;28;20085;-60
2023/03/30 02:20:37;;;;;;;9.90;9.40;;;;;;;;;;5099106;28;20096;-60
2023/03/30 02:23:04;;;;;;;10.63;10.02;;;;;;;;;;5111264;28;20023;-59
2023/03/30 02:25:30;;;;;;;10.48;9.88;;;;;;;;;;5107360;28;20023;-59
2023/03/30 02:27:55;;;;;;;10.38;9.80;;;;;;;;;;5112413;28;20031;-60
2023/03/30 02:30:21;;;;;;;9.95;9.45;;;;;;;;;;5111890;28;20386;-60
2023/03/30 02:32:48;;;;;;;10.13;9.63;;;;;;;;;;5112175;28;20081;-60
2023/03/30 02:35:28;;;;;;;10.68;10.07;;;;;;;;;;5111852;28;20110;-60
2023/03/30 02:38:03;;;;;;;10.52;9.93;;;;;;;;;;5110619;28;20051;-60
2023/03/30 02:40:35;;;;;;;10.10;9.57;;;;;;;;;;5093665;28;20023;-60
2023/03/30 02:43:12;;;;;;;9.80;9.30;;;;;;;;;;5108880;28;20026;-61
2023/03/30 02:45:44;;;;;;;10.48;9.88;;;;;;;;;;5106111;28;20020;-61
2023/03/30 02:48:16;;;;;;;9.85;9.35;;;;;;;;;;5112139;28;20015;-59
2023/03/30 02:50:48;;;;;;;10.13;9.60;;;;;;;;;;5098711;28;20482;-60
2023/03/30 02:53:40;;;;;;;10.20;9.70;;;;;;;;;;5111952;28;20023;-60
2023/03/30 02:56:24;;;;;;;10.35;9.75;;;;;;;;;;5067905;28;20060;-59
2023/03/30 02:58:57;;;;;;;10.75;10.15;;;;;;;;;;5110346;28;20050;-60
2023/03/30 03:01:29;;;;;;;9.90;9.40;;;;;;;;;;5110837;28;20514;-60
2023/03/30 03:03:57;;;;;;;10.80;10.20;;;;;;;;;;5110737;28;20047;-60
2023/03/30 03:06:22;;;;;;;10.48;9.88;;;;;;;;;;5104175;28;20126;-60
2023/03/30 03:08:48;;;;;;;9.98;9.48;;;;;;;;;;5105971;28;20115;-60
2023/03/30 03:11:13;;;;;;;9.55;9.13;;;;;;;;;;5110980;28;20378;-60
2023/03/30 03:13:39;;;;;;;11.48;10.77;;;;;;;;;;5120200;28;20383;-59
2023/03/30 03:16:06;;;;;;;10.68;10.07;;;;;;;;;;5111348;28;20031;-59
2023/03/30 03:18:33;;;;;;;11.80;11.05;;;;;;;;;;5103917;28;20019;-60
2023/03/30 03:20:59;;;;;;;10.15;9.65;;;;;;;;;;5115083;28;20046;-59
2023/03/30 03:23:25;;;;;;;11.32;10.63;;;;;;;;;;5115156;28;20395;-60
2023/03/30 03:25:50;;;;;;;10.68;10.07;;;;;;;;;;5114450;28;20028;-59
2023/03/30 03:28:16;;;;;;;10.50;9.90;;;;;;;;;;5106971;28;20073;-59
2023/03/30 03:30:41;;;;;;;11.48;10.77;;;;;;;;;;5109697;28;20106;-60
2023/03/30 03:33:06;;;;;;;11.50;10.80;;;;;;;;;;5115533;28;20016;-61
2023/03/30 03:35:32;;;;;;;11.90;11.15;;;;;;;;;;5096694;28;20117;-60
2023/03/30 03:37:57;;;;;;;11.68;10.98;;;;;;;;;;5110038;28;20386;-60
2023/03/30 03:40:22;;;;;;;11.10;10.50;;;;;;;;;;5114729;28;20102;-60
2023/03/30 03:42:48;;;;;;;10.50;10.00;;;;;;;;;;5109151;27;20085;-60
2023/03/30 03:45:13;;;;;;;10.88;10.27;;;;;;;;;;5103931;28;20533;-59
2023/03/30 03:47:39;;;;;;;10.95;10.35;;;;;;;;;;5108943;28;20428;-61
2023/03/30 03:50:08;;;;;;;11.75;11.05;;;;;;;;;;5102942;28;20028;-60
2023/03/30 03:52:33;;;;;;;11.50;10.85;;;;;;;;;;5114306;28;20051;-59
2023/03/30 03:54:59;;;;;;;12.18;11.40;;;;;;;;;;5113497;28;20399;-60
2023/03/30 03:57:24;;;;;;;11.52;10.85;;;;;;;;;;5113352;28;20492;-61
2023/03/30 03:59:50;;;;;;;11.70;11.00;;;;;;;;;;5113920;28;20126;-60
2023/03/30 04:02:15;;;;;;;10.73;10.13;;;;;;;;;;5104983;28;20084;-60
2023/03/30 04:04:41;;;;;;;11.32;10.63;;;;;;;;;;5104474;28;20103;-60
2023/03/30 04:07:06;;;;;;;11.70;10.90;;;;;;;;;;5101312;27;20429;-61
2023/03/30 04:09:32;;;;;;;10.43;9.82;;;;;;;;;;5095086;27;20028;-61
2023/03/30 04:11:57;;;;;;;11.63;10.82;;;;;;;;;;5111304;28;20074;-60
2023/03/30 04:14:22;;;;;;;9.27;8.77;;;;;;;;;;5112411;28;20543;-59
2023/03/30 04:16:50;;;;;;;9.60;9.10;;;;;;;;;;5102843;28;20367;-61
2023/03/30 04:19:15;;;;;;;10.13;9.52;;;;;;;;;;5112398;28;20524;-59
2023/03/30 04:21:45;;;;;;;9.70;9.13;;;;;;;;;;5113967;28;20098;-59
2023/03/30 04:24:11;;;;;;;9.95;9.38;;;;;;;;;;5114060;28;20426;-59
2023/03/30 04:26:36;;;;;;;10.18;9.57;;;;;;;;;;5112877;28;20068;-60
2023/03/30 04:29:03;;;;;;;10.02;9.45;;;;;;;;;;5112518;28;20393;-59
2023/03/30 04:31:33;;;;;;;10.20;9.60;;;;;;;;;;5105741;28;20024;-58
2023/03/30 04:34:01;;;;;;;9.68;9.18;;;;;;;;;;5113500;28;20022;-58
2023/03/30 04:36:27;;;;;;;10.05;9.55;;;;;;;;;;5113035;28;20015;-59
2023/03/30 04:39:02;;;;;;;10.35;9.80;;;;;;;;;;5099762;28;20012;-59
2023/03/30 04:41:34;;;;;;;;;;;;;;;;;;5101235;28;20024;-60
2023/03/30 04:44:04;;;;;;;9.65;9.15;;;;;;;;;;5108434;27;19922;-60
2023/03/30 04:46:29;;;;;;;10.73;10.18;;;;;;;;;;5105858;28;20023;-61
2023/03/30 04:48:54;;;;;;;9.82;9.32;;;;;;;;;;5113261;28;20126;-61
2023/03/30 04:51:20;;;;;;;10.32;9.82;;;;;;;;;;5109417;28;20028;-61
2023/03/30 04:53:45;;;;;;;10.80;10.30;;;;;;;;;;5112991;28;20026;-61
2023/03/30 04:56:11;;;;;;;10.68;10.18;;;;;;;;;;5112986;28;20027;-61
2023/03/30 04:58:36;;;;;;;10.40;9.90;;;;;;;;;;5104207;28;20035;-61
2023/03/30 05:01:02;;;;;;;11.23;10.73;;;;;;;;;;5110382;28;20497;-60
2023/03/30 05:03:28;;;;;;;10.27;9.77;;;;;;;;;;5111287;28;20012;-62
2023/03/30 05:05:53;;;;;;;11.13;10.63;;;;;;;;;;5113047;28;20036;-61
2023/03/30 05:08:19;;;;;;;10.35;9.85;;;;;;;;;;5098739;28;20027;-61
2023/03/30 05:10:44;;;;;;;10.77;10.27;;;;;;;;;;5100592;28;20072;-59
2023/03/30 05:13:09;;;;;;;10.73;10.23;;;;;;;;;;5105135;28;20020;-62
2023/03/30 05:15:35;;;;;;;11.02;10.52;;;;;;;;;;5112273;28;20027;-62
2023/03/30 05:18:00;;;;;;;11.20;10.70;;;;;;;;;;5104948;28;20012;-61
2023/03/30 05:20:25;;;;;;;10.73;10.23;;;;;;;;;;5107250;27;20027;-62
2023/03/30 05:22:52;;;;;;;10.60;10.10;;;;;;;;;;5106607;28;20061;-62
2023/03/30 05:25:18;;;;;;;10.23;9.77;;;;;;;;;;5113125;28;20080;-62
2023/03/30 05:27:43;;;;;;;10.70;10.20;;;;;;;;;;5109905;28;20424;-60
2023/03/30 05:30:08;;;;;;;10.18;9.75;;;;;;;;;;5113023;28;20019;-61
2023/03/30 05:32:34;;;;;;;10.60;10.10;;;;;;;;;;5112938;28;20027;-61
2023/03/30 05:34:59;;;;;;;10.48;9.98;;;;;;;;;;5102537;28;20103;-62
2023/03/30 05:37:24;;;;;;;10.93;10.43;;;;;;;;;;5111466;28;20147;-62
2023/03/30 05:39:50;;;;;;;10.73;10.23;;;;;;;;;;5112082;28;20023;-62
2023/03/30 05:42:15;;;;;;;10.82;10.32;;;;;;;;;;5102796;28;20039;-61
2023/03/30 05:44:40;;;;;;;11.20;10.70;;;;;;;;;;5106264;28;20012;-61
2023/03/30 05:47:06;;;;;;;11.00;10.50;;;;;;;;;;5109000;28;20510;-61
2023/03/30 05:49:32;;;;;;;10.77;10.27;;;;;;;;;;5110882;28;20027;-62
2023/03/30 05:51:57;;;;;;;10.68;10.18;;;;;;;;;;5104260;28;20099;-66
2023/03/30 05:54:22;;;;;;;11.60;11.10;;;;;;;;;;5103291;27;20050;-65
2023/03/30 05:56:48;;;;;;;11.63;11.13;;;;;;;;;;5104391;27;20049;-64
2023/03/30 05:59:13;;;;;;;11.52;11.02;;;;;;;;;;5103291;28;20044;-64
2023/03/30 06:01:39;;;;;;;11.05;10.55;;;;;;;;;;5113661;27;20011;-64
2023/03/30 06:04:04;;;;;;;10.88;10.38;;;;;;;;;;5121949;27;20034;-65
2023/03/30 06:06:29;;;;;;;11.27;10.77;;;;;;;;;;5121110;27;20074;-65
2023/03/30 06:08:55;;;;;;;11.45;10.95;;;;;;;;;;5106627;27;20084;-65
2023/03/30 06:11:20;;;;;;;11.55;11.05;;;;;;;;;;5111636;27;20127;-64
2023/03/30 06:13:45;;;;;;;11.02;10.52;;;;;;;;;;5107857;28;20540;-64
2023/03/30 06:16:11;;;;;;;10.77;10.27;;;;;;;;;;5104358;27;20495;-67
2023/03/30 06:18:36;;;;;;;11.52;11.02;;;;;;;;;;5104838;27;20012;-63
2023/03/30 06:21:05;;;;;;;11.63;11.13;;;;;;;;;;5109223;27;20011;-64
2023/03/30 06:23:31;;;;;;;11.35;10.85;;;;;;;;;;5100313;28;20026;-64
2023/03/30 06:25:58;;;;;;;10.52;10.02;;;;;;;;;;5115105;27;20015;-63
2023/03/30 06:28:23;;;;;;;11.15;10.65;;;;;;;;;;5106688;27;20027;-65
2023/03/30 06:30:49;;;;;;;11.48;10.98;;;;;;;;;;5107244;28;20029;-67
2023/03/30 06:33:15;;;;;;;10.82;10.32;;;;;;;;;;5106867;28;20043;-63
2023/03/30 06:35:48;;;;;;;11.27;10.77;;;;;;;;;;5098650;28;20527;-66
2023/03/30 06:38:14;;;;;;;11.20;10.70;;;;;;;;;;5089865;28;20047;-65
2023/03/30 06:40:40;;;;;;;11.20;10.70;;;;;;;;;;5105547;28;20603;-63
2023/03/30 06:43:06;;;;;;;11.32;10.82;;;;;;;;;;5115677;28;20019;-65
2023/03/30 06:45:31;;;;;;;11.02;10.52;;;;;;;;;;5108446;28;20088;-64
2023/03/30 06:47:57;;;;;;;11.35;10.85;;;;;;;;;;5104963;28;20028;-64
2023/03/30 06:50:22;;;;;;;11.23;10.73;;;;;;;;;;5111583;28;20093;-65
2023/03/30 06:52:47;;;;;;;11.80;11.30;;;;;;;;;;5107899;28;20270;-64
2023/03/30 06:55:13;;;;;;;11.30;10.80;;;;;;;;;;5106489;27;20023;-65
2023/03/30 06:57:38;;;;;;;11.80;11.30;;;;;;;;;;5116839;27;20019;-65
2023/03/30 07:00:12;;;;;;;11.10;10.60;;;;;;;;;;5126081;27;20055;-66
2023/03/30 07:02:38;;;;;;;10.77;10.27;;;;;;;;;;5116270;27;20047;-64
2023/03/30 07:05:04;;;;;;;11.02;10.52;;;;;;;;;;5107210;27;20639;-64
2023/03/30 07:07:30;;;;;;;10.68;10.18;;;;;;;;;;5094164;27;20034;-65
2023/03/30 07:09:55;;;;;;;10.57;10.07;;;;;;;;;;5114019;27;20024;-65
2023/03/30 07:12:20;;;;;;;11.02;10.52;;;;;;;;;;5111665;28;20553;-64
2023/03/30 07:14:46;;;;;;;11.35;10.85;;;;;;;;;;5123152;27;20019;-66
2023/03/30 07:17:11;;;;;;;11.00;10.50;;;;;;;;;;5121110;27;20019;-64
2023/03/30 07:19:37;;;;;;;11.13;10.63;;;;;;;;;;5111218;27;20090;-63
2023/03/30 07:22:02;;;;;;;11.10;10.60;;;;;;;;;;5114852;27;20062;-63
2023/03/30 07:24:30;;;;;;;11.25;10.75;;;;;;;;;;5110404;27;20154;-64
2023/03/30 07:26:56;;;;;;;11.30;10.80;;;;;;;;;;5107940;27;20652;-65
2023/03/30 07:29:21;;;;;;;11.48;10.98;;;;;;;;;;5108334;27;20032;-65
2023/03/30 07:31:46;;;;;;;11.18;10.68;;;;;;;;;;5116177;27;20045;-65
2023/03/30 07:34:12;;;;;;;10.85;10.35;;;;;;;;;;5111397;27;20072;-65
2023/03/30 07:36:37;;;;;;;11.10;10.60;;;;;;;;;;5111102;28;20065;-65
2023/03/30 07:39:03;;;;;;;11.20;10.70;;;;;;;;;;5108746;28;20011;-65
2023/03/30 07:41:28;;;;;;;11.65;11.15;;;;;;;;;;5113427;27;20027;-62
2023/03/30 07:43:53;;;;;;;10.77;10.27;;;;;;;;;;5113146;27;20542;-62
2023/03/30 07:46:19;;;;;;;11.00;10.50;;;;;;;;;;5107553;27;20201;-63
2023/03/30 07:48:44;;;;;;;11.73;11.23;;;;;;;;;;5110818;27;20278;-62
2023/03/30 07:51:11;;;;;;;11.25;10.75;;;;;;;;;;5105855;27;20383;-62
2023/03/30 07:53:37;;;;;;;11.90;11.40;;;;;;;;;;5101320;27;20028;-61
2023/03/30 07:56:02;;;;;;;10.98;10.48;;;;;;;;;;5099984;27;20032;-63
2023/03/30 07:58:28;;;;;;;11.10;10.60;;;;;;;;;;5117803;27;20107;-62
2023/03/30 08:00:53;;;;;;;11.25;10.75;;;;;;;;;;5108051;28;20043;-63
2023/03/30 08:03:20;;;;;;;10.68;10.18;;;;;;;;;;5112401;27;20031;-63
2023/03/30 08:05:56;;;;;;;11.27;10.77;;;;;;;;;;5122676;27;20034;-62
2023/03/30 08:08:21;;;;;;;10.90;10.40;;;;;;;;;;5110256;27;20049;-63
2023/03/30 08:10:46;;;;;;;10.55;10.05;;;;;;;;;;5108482;28;20019;-63
2023/03/30 08:13:12;;;;;;;11.13;10.63;;;;;;;;;;5101839;27;20020;-64
2023/03/30 08:15:38;;;;;;;11.27;10.77;;;;;;;;;;5105147;27;20110;-66
2023/03/30 08:18:06;;;;;;;11.13;10.63;;;;;;;;;;5113824;27;20480;-65
2023/03/30 08:20:35;;;;;;;10.88;10.38;;;;;;;;;;5118629;27;20102;-65
2023/03/30 08:23:01;;;;;;;10.85;10.35;;;;;;;;;;5108571;27;20424;-64
2023/03/30 08:25:27;;;;;;;11.68;11.18;;;;;;;;;;5108097;27;20032;-66
2023/03/30 08:27:52;;;;;;;11.32;10.82;;;;;;;;;;5103777;27;20038;-66
2023/03/30 08:30:18;;;;;;;11.43;10.93;;;;;;;;;;5114430;27;20024;-66
2023/03/30 08:32:43;;;;;;;11.68;11.18;;;;;;;;;;5110886;27;20032;-66
2023/03/30 08:35:09;;;;;;;11.95;11.38;;;;;;;;;;5116558;27;20160;-69
2023/03/30 08:37:35;;;;;;;13.80;13.10;;;;;;;;;;5113330;27;20042;-64
2023/03/30 08:40:00;;;;;;;12.95;12.25;;;;;;;;;;5108216;28;20644;-64
2023/03/30 08:42:25;;;;;;;13.68;12.98;;;;;;;;;;5113674;27;20035;-64
2023/03/30 08:44:56;;;;;;;12.45;11.85;;;;;;;;;;5116186;27;20465;-63
2023/03/30 08:47:25;;;;;;;12.45;11.85;;;;;;;;;;5116386;27;20106;-64
2023/03/30 08:49:57;;;;;;;12.70;12.00;;;;;;;;;;5114377;27;20182;-63
2023/03/30 08:52:23;;;;;;;12.93;12.23;;;;;;;;;;5108531;28;20028;-65
2023/03/30 08:54:50;;;;;;;13.20;12.50;;;;;;;;;;5102968;27;20011;-64
2023/03/30 08:57:35;;;;;;;13.98;13.18;;;;;;;;;;5116473;27;20487;-64
2023/03/30 09:00:05;;;;;;;12.55;11.85;;;;;;;;;;5108763;27;20039;-66
2023/03/30 09:02:32;;;;;;;13.15;12.35;;;;;;;;;;5119328;27;20047;-65
2023/03/30 09:05:00;;;;;;;14.50;13.63;;;;;;;;;;5103035;27;20493;-61
2023/03/30 09:07:37;;;;;;;11.52;10.93;;;;;;;;;;5103645;27;20038;-63
2023/03/30 09:10:03;;;;;;;11.52;10.93;;;;;;;;;;5111224;27;20028;-65
2023/03/30 09:12:36;;;;;;;11.40;10.80;;;;;;;;;;5110800;28;20707;-61
2023/03/30 09:15:14;;;;;;;10.80;10.30;;;;;;;;;;5114534;27;20027;-62
2023/03/30 09:17:47;;;;;;;11.02;10.52;;;;;;;;;;5103550;27;20034;-62
2023/03/30 09:20:12;;;;;;;11.95;11.32;;;;;;;;;;5099695;27;20100;-68
2023/03/30 09:22:39;;;;;;;12.55;11.85;;;;;;;;;;5096485;27;20788;-66
2023/03/30 09:25:14;;;;;;;11.80;11.20;;;;;;;;;;5103225;27;20020;-65
2023/03/30 09:27:54;;;;;;;12.55;11.85;;;;;;;;;;5105509;27;20490;-64
2023/03/30 09:30:24;;;;;;;11.82;11.23;;;;;;;;;;5103606;27;20099;-63
2023/03/30 09:32:57;;;;;;;12.45;11.75;;;;;;;;;;5100839;28;20015;-65
2023/03/30 09:35:26;;;;;;;11.25;10.65;;;;;;;;;;5120104;27;20028;-65
2023/03/30 09:37:52;;;;;;;11.35;10.75;;;;;;;;;;5113451;27;20019;-64
2023/03/30 09:40:28;;;;;;;12.07;11.48;;;;;;;;;;5108891;27;20398;-64
2023/03/30 09:43:15;;;;;;;12.27;11.57;;;;;;;;;;5107591;28;20022;-63
2023/03/30 09:45:41;;;;;;;12.27;11.57;;;;;;;;;;5108336;27;20068;-64
2023/03/30 09:48:07;;;;;;;12.30;11.60;;;;;;;;;;5122497;27;20458;-63
2023/03/30 09:50:43;;;;;;;11.65;11.05;;;;;;;;;;5116818;27;20023;-64
2023/03/30 09:53:17;;;;;;;11.38;10.77;;;;;;;;;;5111778;27;20027;-64
2023/03/30 09:55:53;;;;;;;12.43;11.73;;;;;;;;;;5096443;28;20383;-64
2023/03/30 09:58:25;;;;;;;11.35;10.75;;;;;;;;;;5108081;28;20031;-65
2023/03/30 10:01:01;;;;;;;12.65;11.95;;;;;;;;;;5107843;28;20035;-65
2023/03/30 10:03:26;;;;;;;12.93;12.18;;;;;;;;;;5105722;28;20047;-65
2023/03/30 10:06:00;;;;;;;13.40;12.60;;;;;;;;;;5102897;27;20485;-64
2023/03/30 10:08:26;;;;;;;12.75;12.02;;;;;;;;;;5108533;27;20507;-64
2023/03/30 10:10:55;;;;;;;11.57;10.95;;;;;;;;;;5098141;27;20130;-64
2023/03/30 10:13:25;;;;;;;12.27;11.57;;;;;;;;;;5094934;28;20066;-65
2023/03/30 10:15:52;;;;;;;11.80;11.15;;;;;;;;;;5098263;27;20545;-64
2023/03/30 10:18:25;;;;;;;12.68;11.98;;;;;;;;;;5100382;27;20024;-64
2023/03/30 10:21:01;;;;;;;11.57;10.98;;;;;;;;;;5102400;28;20027;-63
2023/03/30 10:23:32;;;;;;;11.93;11.27;;;;;;;;;;5101860;28;20027;-64
2023/03/30 10:26:00;;;;;;;12.75;12.05;;;;;;;;;;5109008;27;20047;-65
2023/03/30 10:28:26;;;;;;;12.13;11.45;;;;;;;;;;5112124;27;20534;-65
2023/03/30 10:30:54;;;;;;;11.65;11.05;;;;;;;;;;5107368;27;20019;-61
2023/03/30 10:33:20;;;;;;;10.60;10.10;;;;;;;;;;5107307;28;20024;-63
2023/03/30 10:35:48;;;;;;;11.77;11.18;;;;;;;;;;5100836;28;20115;-64
2023/03/30 10:38:14;;;;;;;10.73;10.20;;;;;;;;;;5122503;28;20012;-63
2023/03/30 10:40:40;;;;;;;12.60;11.85;;;;;;;;;;5109403;28;20045;-64
2023/03/30 10:43:11;;;;;;;11.10;10.50;;;;;;;;;;5110386;28;20378;-63
2023/03/30 10:45:39;;;;;;;10.70;10.20;;;;;;;;;;5111673;28;20019;-62
2023/03/30 10:48:08;;;;;;;10.20;9.70;;;;;;;;;;5111744;28;20024;-64
2023/03/30 10:50:34;;;;;;;12.15;11.45;;;;;;;;;;5113893;28;20019;-63
2023/03/30 10:53:08;;;;;;;9.82;9.38;;;;;;;;;;5113993;28;20440;-62
2023/03/30 10:55:49;;;;;;;10.45;9.95;;;;;;;;;;5111762;28;20034;-62
2023/03/30 10:58:33;;;;;;;10.95;10.35;;;;;;;;;;5099013;28;20020;-62
2023/03/30 11:01:02;;;;;;;12.27;11.57;;;;;;;;;;5098093;28;20075;-62
2023/03/30 11:03:31;;;;;;;10.43;9.93;;;;;;;;;;5102957;28;20475;-63
2023/03/30 11:06:00;;;;;;;10.32;9.82;;;;;;;;;;5108478;28;20122;-60
2023/03/30 11:08:30;;;;;;;12.00;11.30;;;;;;;;;;5105597;28;20063;-60
2023/03/30 11:10:57;;;;;;;11.65;11.02;;;;;;;;;;5096276;28;20035;-61
2023/03/30 11:13:34;;;;;;;10.00;9.50;;;;;;;;;;5097674;28;20035;-62
2023/03/30 11:16:15;;;;;;;11.18;10.57;;;;;;;;;;5101453;28;20024;-60
2023/03/30 11:18:41;;;;;;;12.35;11.65;;;;;;;;;;5104204;28;20022;-63
2023/03/30 11:21:11;;;;;;;13.13;12.32;;;;;;;;;;5103300;28;20062;-63
2023/03/30 11:23:43;;;;;;;11.77;11.10;;;;;;;;;;5095513;28;20020;-64
2023/03/30 11:26:14;;;;;;;11.13;10.52;;;;;;;;;;5107381;28;20579;-65
2023/03/30 11:28:46;;;;;;;12.50;11.80;;;;;;;;;;5108337;28;20031;-62
2023/03/30 11:31:17;;;;;;;12.18;11.48;;;;;;;;;;5108305;28;20084;-64
2023/03/30 11:33:50;;;;;;;11.45;10.85;;;;;;;;;;5106424;28;20027;-63
2023/03/30 11:36:22;;;;;;;11.50;10.90;;;;;;;;;;5108057;28;20039;-63
2023/03/30 11:38:53;;;;;;;15.18;14.18;;;;;;;;;;5105214;28;20042;-65
2023/03/30 11:41:22;;;;;;;13.93;13.02;;;;;;;;;;5102480;27;20015;-65
2023/03/30 11:43:49;;;;;;;11.65;10.98;;;;;;;;;;5110256;27;20016;-65
2023/03/30 11:46:24;;;;;;;13.15;12.35;;;;;;;;;;5112921;27;20033;-63
2023/03/30 11:48:56;;;;;;;12.63;11.90;;;;;;;;;;5120071;27;20068;-63
2023/03/30 11:51:21;;;;;;;12.68;11.93;;;;;;;;;;5101056;27;20028;-64
2023/03/30 11:53:58;;;;;;;12.60;11.90;;;;;;;;;;5112578;27;20053;-65
2023/03/30 11:56:45;;;;;;;13.30;12.50;;;;;;;;;;5106871;27;20425;-63
2023/03/30 11:59:16;;;;;;;12.95;12.15;;;;;;;;;;5072863;27;20040;-65
2023/03/30 12:01:45;;;;;;;12.30;11.60;;;;;;;;;;5123626;27;20027;-63
2023/03/30 12:04:11;;;;;;;13.25;12.45;;;;;;;;;;5118264;27;20023;-65
2023/03/30 12:06:40;;;;;;;12.93;12.13;;;;;;;;;;5103181;27;20050;-63
2023/03/30 12:09:15;;;;;;;12.90;12.13;;;;;;;;;;5113430;27;20034;-64
2023/03/30 12:11:43;;;;;;;13.30;12.50;;;;;;;;;;5110517;27;20084;-66
2023/03/30 12:14:17;;;;;;;12.30;11.60;;;;;;;;;;5107058;27;20338;-66
2023/03/30 12:16:46;;;;;;;10.73;10.20;;;;;;;;;;5117507;27;20042;-66
2023/03/30 12:19:17;;;;;;;11.77;11.13;;;;;;;;;;5113429;27;20265;-65
2023/03/30 12:21:54;;;;;;;12.20;11.50;;;;;;;;;;5102375;27;20032;-63
2023/03/30 12:24:25;;;;;;;12.55;11.82;;;;;;;;;;5107862;27;20389;-63
2023/03/30 12:26:51;;;;;;;13.65;12.77;;;;;;;;;;5109931;27;20031;-64
2023/03/30 12:29:17;;;;;;;11.70;11.07;;;;;;;;;;5111514;27;20024;-63
2023/03/30 12:31:54;;;;;;;11.45;10.85;;;;;;;;;;5114308;27;20444;-63
2023/03/30 12:34:22;;;;;;;13.13;12.32;;;;;;;;;;5118939;27;20027;-63
2023/03/30 12:36:51;;;;;;;12.18;11.48;;;;;;;;;;5120767;27;20015;-63
2023/03/30 12:39:17;;;;;;;12.40;11.70;;;;;;;;;;5119629;27;20122;-64
2023/03/30 12:41:47;;;;;;;12.02;11.32;;;;;;;;;;5109272;27;20110;-64
2023/03/30 12:44:13;;;;;;;12.15;11.45;;;;;;;;;;5121068;27;20034;-64
2023/03/30 12:46:42;;;;;;;12.82;12.05;;;;;;;;;;5123629;27;20035;-63
2023/03/30 12:49:16;;;;;;;10.13;9.63;;;;;;;;;;5113464;27;20050;-64
2023/03/30 12:51:41;;;;;;;;;;;;;;;;;;5117233;27;20488;-65
2023/03/30 12:54:25;;;;;;;11.82;11.15;;;;;;;;;;5112711;27;20110;-64
2023/03/30 12:56:50;;;;;;;11.50;10.90;;;;;;;;;;5121799;27;20101;-68
2023/03/30 12:59:35;;;;;;;11.70;11.05;;;;;;;;;;5118478;27;20460;-66
2023/03/30 13:02:04;;;;;;;10.98;10.38;;;;;;;;;;5123896;27;20493;-65
2023/03/30 13:04:38;;;;;;;12.43;11.73;;;;;;;;;;5101397;27;20031;-66
2023/03/30 13:07:12;;;;;;;12.27;11.57;;;;;;;;;;5105355;27;20054;-65
2023/03/30 13:09:58;;;;;;;11.27;10.68;;;;;;;;;;5115804;27;20019;-65
2023/03/30 13:12:23;;;;;;;12.25;11.55;;;;;;;;;;5114219;27;20136;-65
2023/03/30 13:14:56;;;;;;;11.60;11.00;;;;;;;;;;5106783;27;20577;-64
2023/03/30 13:17:24;;;;;;;12.50;11.80;;;;;;;;;;5109125;27;20498;-64
2023/03/30 13:20:09;;;;;;;10.50;10.00;;;;;;;;;;5105373;27;20020;-65
2023/03/30 13:22:35;;;;;;;10.82;10.25;;;;;;;;;;5098480;27;20028;-64
2023/03/30 13:25:00;;;;;;;13.05;12.25;;;;;;;;;;5109569;27;20063;-64
2023/03/30 13:27:28;;;;;;;10.88;10.27;;;;;;;;;;5114136;27;20175;-64
2023/03/30 13:29:55;;;;;;;11.35;10.75;;;;;;;;;;5106041;27;20031;-64
2023/03/30 13:32:39;;;;;;;11.13;10.52;;;;;;;;;;5094814;27;20099;-63
2023/03/30 13:35:08;;;;;;;11.85;11.18;;;;;;;;;;5108582;27;20185;-64
2023/03/30 13:37:36;;;;;;;11.60;11.00;;;;;;;;;;5108392;28;20043;-63
2023/03/30 13:40:06;;;;;;;12.05;11.35;;;;;;;;;;5109551;27;20026;-65
2023/03/30 13:42:46;;;;;;;12.25;11.55;;;;;;;;;;5104598;27;20079;-66
2023/03/30 13:45:15;;;;;;;11.88;11.25;;;;;;;;;;5109866;27;20024;-66
2023/03/30 13:47:40;;;;;;;12.38;11.68;;;;;;;;;;5104401;28;20069;-64
2023/03/30 13:50:09;;;;;;;11.13;10.52;;;;;;;;;;5108445;27;20051;-65
2023/03/30 13:52:36;;;;;;;11.85;11.23;;;;;;;;;;5099944;27;20027;-64
2023/03/30 13:55:03;;;;;;;12.52;11.82;;;;;;;;;;5108657;27;20466;-64
2023/03/30 13:57:33;;;;;;;12.05;11.35;;;;;;;;;;5102820;27;20015;-64
2023/03/30 14:00:05;;;;;;;11.82;11.15;;;;;;;;;;5109300;27;20050;-65
2023/03/30 14:02:30;;;;;;;11.07;10.48;;;;;;;;;;5108469;27;20379;-65
2023/03/30 14:05:13;;;;;;;11.07;10.48;;;;;;;;;;5111440;27;20020;-66
2023/03/30 14:07:39;;;;;;;12.43;11.73;;;;;;;;;;5106372;27;20123;-65
2023/03/30 14:10:08;;;;;;;12.30;11.60;;;;;;;;;;5120775;27;20031;-62
2023/03/30 14:12:34;;;;;;;12.07;11.38;;;;;;;;;;5107712;27;20035;-64
2023/03/30 14:14:59;;;;;;;10.65;10.15;;;;;;;;;;5116960;27;20034;-65
2023/03/30 14:17:25;;;;;;;12.20;11.50;;;;;;;;;;5112091;27;20080;-63
2023/03/30 14:20:10;;;;;;;13.02;12.25;;;;;;;;;;5110825;27;20024;-62
2023/03/30 14:22:39;;;;;;;10.88;10.27;;;;;;;;;;5099339;28;20083;-65
2023/03/30 14:25:06;;;;;;;12.48;11.77;;;;;;;;;;5101610;27;20110;-64
2023/03/30 14:27:33;;;;;;;11.40;10.80;;;;;;;;;;5109949;28;20042;-65
2023/03/30 14:29:58;;;;;;;11.48;10.88;;;;;;;;;;5084568;28;20491;-65
2023/03/30 14:32:25;;;;;;;12.00;11.30;;;;;;;;;;5101330;27;20028;-64